Time;durP1;ratioP1;P1;durP2;ratioP2;P2;SDS_P1;SDS_P2;PMS_P1;PMS_P2;Temp;Humidity;BMP_temperature;BMP_pressure;BME280_temperature;BME280_humidity;BME280_pressure;Samples;Min_cycle;Max_cycle;Signal;HPM_P1;HPM_P2
2022/10/04 00:01:50;;;;;;;11.90;3.35;;;;;;;;;;6273813;22;20559;-74
2022/10/04 00:04:30;;;;;;;6.90;2.47;;;;;;;;;;6276567;22;20016;-75
2022/10/04 00:07:07;;;;;;;12.90;3.35;;;;;;;;;;6303445;22;20038;-74
2022/10/04 00:09:54;;;;;;;9.70;3.28;;;;;;;;;;6276443;22;20414;-74
2022/10/04 00:12:24;;;;;;;12.35;3.45;;;;;;;;;;6302055;22;20030;-74
2022/10/04 00:15:03;;;;;;;8.25;3.28;;;;;;;;;;6303142;22;20070;-75
2022/10/04 00:17:34;;;;;;;9.15;2.75;;;;;;;;;;6302675;22;20115;-74
2022/10/04 00:20:26;;;;;;;8.75;2.80;;;;;;;;;;6303090;22;20024;-74
2022/10/04 00:23:12;;;;;;;9.85;2.70;;;;;;;;;;6302945;22;20098;-74
2022/10/04 00:25:46;;;;;;;7.45;2.70;;;;;;;;;;6302190;22;20428;-74
2022/10/04 00:28:19;;;;;;;8.63;2.55;;;;;;;;;;6303623;22;20031;-74
2022/10/04 00:31:09;;;;;;;10.90;2.40;;;;;;;;;;6302647;22;20023;-74
2022/10/04 00:33:55;;;;;;;8.18;2.58;;;;;;;;;;6302668;22;20082;-74
2022/10/04 00:36:45;;;;;;;9.85;2.38;;;;;;;;;;6270751;22;20490;-74
2022/10/04 00:39:25;;;;;;;4.80;1.92;;;;;;;;;;6268029;22;20364;-74
2022/10/04 00:42:05;;;;;;;11.32;3.15;;;;;;;;;;6268862;22;20107;-74
2022/10/04 00:44:37;;;;;;;7.40;2.60;;;;;;;;;;6272404;22;20537;-74
2022/10/04 00:47:20;;;;;;;6.95;2.45;;;;;;;;;;6271223;22;20026;-75
2022/10/04 00:49:49;;;;;;;5.20;2.10;;;;;;;;;;6271954;22;20398;-74
2022/10/04 00:52:26;;;;;;;8.30;2.67;;;;;;;;;;6271420;22;20034;-74
2022/10/04 00:54:55;;;;;;;7.43;2.88;;;;;;;;;;6271648;22;20099;-74
2022/10/04 00:57:34;;;;;;;10.05;2.90;;;;;;;;;;6273069;22;20024;-75
2022/10/04 01:00:16;;;;;;;9.93;2.30;;;;;;;;;;6272570;22;20045;-74
2022/10/04 01:02:43;;;;;;;5.95;2.28;;;;;;;;;;6272224;22;20389;-75
2022/10/04 01:05:25;;;;;;;16.52;2.80;;;;;;;;;;6271745;22;20020;-74
2022/10/04 01:07:55;;;;;;;7.82;2.95;;;;;;;;;;6270498;22;20067;-74
2022/10/04 01:10:31;;;;;;;11.93;3.25;;;;;;;;;;6270102;22;20127;-75
2022/10/04 01:13:07;;;;;;;17.85;2.80;;;;;;;;;;6271347;22;20028;-74
2022/10/04 01:15:50;;;;;;;6.80;2.78;;;;;;;;;;6269153;22;20047;-74
2022/10/04 01:18:20;;;;;;;7.25;2.65;;;;;;;;;;6271605;22;20031;-77
2022/10/04 01:21:06;;;;;;;15.45;3.90;;;;;;;;;;6269308;22;20031;-75
2022/10/04 01:23:33;;;;;;;9.07;3.33;;;;;;;;;;6270872;22;20062;-75
2022/10/04 01:26:31;;;;;;;12.93;3.50;;;;;;;;;;6270597;22;20715;-75
2022/10/04 01:28:58;;;;;;;13.75;3.10;;;;;;;;;;6271385;22;20346;-75
2022/10/04 01:31:33;;;;;;;9.75;3.42;;;;;;;;;;6268963;22;20465;-78
2022/10/04 01:34:01;;;;;;;16.17;3.75;;;;;;;;;;6271010;22;20091;-75
2022/10/04 01:36:28;;;;;;;;;;;;;;;;;;6278387;22;20046;-75
2022/10/04 01:39:09;;;;;;;11.73;3.83;;;;;;;;;;6302555;22;19957;-75
2022/10/04 01:41:39;;;;;;;11.30;3.30;;;;;;;;;;6302130;22;20126;-76
2022/10/04 01:44:39;;;;;;;16.15;4.30;;;;;;;;;;6300772;22;20423;-76
2022/10/04 01:47:13;;;;;;;10.30;4.03;;;;;;;;;;6297795;22;20481;-78
2022/10/04 01:49:47;;;;;;;16.17;4.20;;;;;;;;;;6275295;22;20023;-78
2022/10/04 01:52:21;;;;;;;14.90;5.25;;;;;;;;;;6302636;22;20022;-78
2022/10/04 01:55:14;;;;;;;14.73;4.28;;;;;;;;;;6275294;22;20023;-78
2022/10/04 01:57:44;;;;;;;21.17;4.78;;;;;;;;;;6301060;22;20030;-78
2022/10/04 02:00:20;;;;;;;21.50;5.00;;;;;;;;;;6301099;22;20023;-76
2022/10/04 02:03:09;;;;;;;13.35;4.18;;;;;;;;;;6301887;22;20094;-75
2022/10/04 02:05:47;;;;;;;17.73;4.50;;;;;;;;;;6275191;22;20122;-78
2022/10/04 02:08:16;;;;;;;17.05;4.50;;;;;;;;;;6300737;22;20027;-78
2022/10/04 02:10:52;;;;;;;17.02;4.80;;;;;;;;;;6302369;22;20046;-76
2022/10/04 02:13:20;;;;;;;19.13;5.00;;;;;;;;;;6302721;22;20415;-75
2022/10/04 02:15:54;;;;;;;17.83;4.88;;;;;;;;;;6301469;22;20404;-76
2022/10/04 02:18:21;;;;;;;;;;;;;;;;;;6302936;22;20019;-75
2022/10/04 02:20:50;;;;;;;21.33;4.97;;;;;;;;;;6300990;22;19990;-75
2022/10/04 02:23:24;;;;;;;61.58;6.93;;;;;;;;;;6301569;22;20097;-75
2022/10/04 02:25:52;;;;;;;200.60;11.68;;;;;;;;;;6301967;22;20094;-75
2022/10/04 02:28:25;;;;;;;269.98;12.32;;;;;;;;;;6302258;22;20103;-75
2022/10/04 02:33:48;;;;;;;141.30;10.10;;;;;;;;;;6303156;22;20023;-75
2022/10/04 02:36:22;;;;;;;210.05;10.57;;;;;;;;;;6300159;22;20464;-75
2022/10/04 02:39:05;;;;;;;170.23;8.20;;;;;;;;;;6301799;22;20099;-75
2022/10/04 02:41:34;;;;;;;180.38;10.80;;;;;;;;;;6301490;22;20102;-76
2022/10/04 02:44:35;;;;;;;150.90;9.70;;;;;;;;;;6301642;22;20031;-75
2022/10/04 02:47:05;;;;;;;48.40;5.80;;;;;;;;;;6295484;22;20555;-75
2022/10/04 02:49:44;;;;;;;173.43;9.75;;;;;;;;;;6301057;22;20069;-75
2022/10/04 02:52:17;;;;;;;155.23;8.73;;;;;;;;;;6300336;22;20097;-75
2022/10/04 02:54:56;;;;;;;180.73;10.27;;;;;;;;;;6301658;22;20094;-75
2022/10/04 02:57:31;;;;;;;95.88;7.78;;;;;;;;;;6301003;22;20063;-75
2022/10/04 03:00:17;;;;;;;62.97;6.68;;;;;;;;;;6300889;22;20130;-75
2022/10/04 03:03:23;;;;;;;115.57;7.47;;;;;;;;;;6302467;22;20099;-75
2022/10/04 03:05:50;;;;;;;;;;;;;;;;;;6234150;22;20025;-75
2022/10/04 03:08:24;;;;;;;127.85;7.55;;;;;;;;;;6301245;22;19925;-75
2022/10/04 03:10:52;;;;;;;111.18;7.50;;;;;;;;;;6273760;22;20336;-75
2022/10/04 03:13:20;;;;;;;129.88;7.55;;;;;;;;;;6300718;22;20098;-75
2022/10/04 03:15:54;;;;;;;120.63;7.78;;;;;;;;;;6300693;22;20099;-75
2022/10/04 03:18:22;;;;;;;87.40;7.97;;;;;;;;;;6302312;22;20051;-76
2022/10/04 03:20:56;;;;;;;69.53;7.47;;;;;;;;;;6301117;22;20019;-74
2022/10/04 03:23:24;;;;;;;57.08;7.13;;;;;;;;;;6300916;22;20023;-75
2022/10/04 03:26:23;;;;;;;85.28;7.45;;;;;;;;;;6301711;22;20402;-75
2022/10/04 03:28:51;;;;;;;80.32;6.57;;;;;;;;;;6264940;22;20122;-75
2022/10/04 03:31:26;;;;;;;70.43;5.53;;;;;;;;;;6301060;22;20469;-75
2022/10/04 03:33:55;;;;;;;76.38;7.28;;;;;;;;;;6301429;22;20103;-75
2022/10/04 03:36:23;;;;;;;70.80;6.40;;;;;;;;;;6300073;22;20098;-75
2022/10/04 03:39:04;;;;;;;109.35;8.32;;;;;;;;;;6303854;22;20023;-75
2022/10/04 03:41:32;;;;;;;54.30;5.82;;;;;;;;;;6302585;22;20050;-74
2022/10/04 03:44:07;;;;;;;55.85;6.47;;;;;;;;;;6302277;22;20368;-75
2022/10/04 03:46:35;;;;;;;77.88;6.15;;;;;;;;;;6302498;22;20022;-74
2022/10/04 03:49:11;;;;;;;58.20;7.55;;;;;;;;;;6304245;22;20031;-75
2022/10/04 03:51:43;;;;;;;66.78;8.07;;;;;;;;;;6303484;22;20067;-75
2022/10/04 03:54:22;;;;;;;63.90;7.45;;;;;;;;;;6277920;22;20033;-75
2022/10/04 03:56:51;;;;;;;52.20;6.40;;;;;;;;;;6303600;22;20050;-75
2022/10/04 03:59:26;;;;;;;105.18;9.57;;;;;;;;;;6300131;22;20023;-75
2022/10/04 04:02:00;;;;;;;82.47;9.70;;;;;;;;;;6303544;22;20016;-75
2022/10/04 04:04:34;;;;;;;91.22;7.32;;;;;;;;;;6302443;22;20049;-75
2022/10/04 04:07:03;;;;;;;88.28;8.93;;;;;;;;;;6303961;22;20067;-75
2022/10/04 04:09:38;;;;;;;60.33;7.40;;;;;;;;;;6302529;22;20065;-74
2022/10/04 04:12:33;;;;;;;71.38;8.73;;;;;;;;;;6303322;22;20023;-75
2022/10/04 04:15:00;;;;;;;56.28;8.73;;;;;;;;;;6302987;22;20015;-75
2022/10/04 04:17:36;;;;;;;74.65;9.45;;;;;;;;;;6277662;22;20023;-74
2022/10/04 04:20:15;;;;;;;70.50;9.52;;;;;;;;;;6275499;22;20090;-75
2022/10/04 04:22:57;;;;;;;97.93;10.95;;;;;;;;;;6302963;22;20073;-75
2022/10/04 04:25:40;;;;;;;64.72;10.27;;;;;;;;;;6274901;22;20081;-75
2022/10/04 04:28:37;;;;;;;85.78;9.85;;;;;;;;;;6274374;22;20019;-75
2022/10/04 04:31:23;;;;;;;105.25;11.57;;;;;;;;;;6276631;22;20301;-75
2022/10/04 04:34:05;;;;;;;156.90;14.25;;;;;;;;;;6302573;22;20027;-75
2022/10/04 04:36:54;;;;;;;87.47;10.30;;;;;;;;;;6297420;22;20491;-75
2022/10/04 04:39:33;;;;;;;83.43;9.05;;;;;;;;;;6302274;22;20025;-75
2022/10/04 04:42:13;;;;;;;67.72;9.93;;;;;;;;;;6275904;22;20016;-75
2022/10/04 04:44:52;;;;;;;112.00;11.38;;;;;;;;;;6301302;22;20019;-75
2022/10/04 04:47:29;;;;;;;124.20;12.75;;;;;;;;;;6303600;22;20127;-75
2022/10/04 04:50:14;;;;;;;116.32;12.48;;;;;;;;;;6302817;22;20105;-75
2022/10/04 04:52:44;;;;;;;121.35;13.43;;;;;;;;;;6299873;22;20023;-75
2022/10/04 04:55:23;;;;;;;144.60;14.38;;;;;;;;;;6298510;22;20023;-75
2022/10/04 04:57:51;;;;;;;242.02;17.58;;;;;;;;;;6301260;22;20110;-75
2022/10/04 05:00:33;;;;;;;342.58;22.63;;;;;;;;;;6302163;22;20026;-75
2022/10/04 05:03:01;;;;;;;167.40;14.25;;;;;;;;;;6275701;22;20109;-75
2022/10/04 05:05:36;;;;;;;241.52;20.17;;;;;;;;;;6301334;22;20474;-75
2022/10/04 05:08:23;;;;;;;254.60;22.88;;;;;;;;;;6302566;22;20531;-75
2022/10/04 05:10:57;;;;;;;158.48;16.88;;;;;;;;;;6303090;22;20043;-75
2022/10/04 05:13:28;;;;;;;114.18;15.50;;;;;;;;;;6302152;22;20071;-75
2022/10/04 05:16:02;;;;;;;147.10;18.30;;;;;;;;;;6301910;22;20486;-75
2022/10/04 05:18:31;;;;;;;484.02;31.58;;;;;;;;;;6302805;22;20024;-75
2022/10/04 05:21:11;;;;;;;148.68;22.02;;;;;;;;;;6301553;22;20110;-75
2022/10/04 05:23:46;;;;;;;123.78;19.20;;;;;;;;;;6276793;22;20647;-75
2022/10/04 05:26:13;;;;;;;85.90;16.70;;;;;;;;;;6301997;22;20030;-75
2022/10/04 05:28:47;;;;;;;84.68;17.35;;;;;;;;;;6302371;22;20461;-75
2022/10/04 05:31:26;;;;;;;100.95;20.10;;;;;;;;;;6302161;22;20090;-76
2022/10/04 05:33:59;;;;;;;236.30;27.80;;;;;;;;;;6276625;22;20019;-75
2022/10/04 05:36:54;;;;;;;376.52;32.50;;;;;;;;;;6301879;22;20090;-75
2022/10/04 05:39:32;;;;;;;400.55;28.77;;;;;;;;;;6304012;22;20023;-75
2022/10/04 05:41:59;;;;;;;423.63;31.98;;;;;;;;;;6301387;22;20019;-75
2022/10/04 05:44:52;;;;;;;283.80;27.88;;;;;;;;;;6277454;22;20090;-75
2022/10/04 05:47:25;;;;;;;464.60;32.03;;;;;;;;;;6303536;22;20114;-75
2022/10/04 05:50:00;;;;;;;269.58;28.88;;;;;;;;;;6302029;22;20106;-75
2022/10/04 05:52:37;;;;;;;297.15;30.27;;;;;;;;;;6302440;22;20019;-75
2022/10/04 05:55:11;;;;;;;134.30;22.17;;;;;;;;;;6302902;22;20023;-75
2022/10/04 05:58:02;;;;;;;197.82;25.15;;;;;;;;;;6301778;22;20583;-75
2022/10/04 06:00:49;;;;;;;197.13;26.10;;;;;;;;;;6251353;22;20110;-75
2022/10/04 06:03:16;;;;;;;403.33;32.38;;;;;;;;;;6301689;22;20065;-75
2022/10/04 06:05:55;;;;;;;341.55;29.73;;;;;;;;;;6302035;22;20027;-75
2022/10/04 06:08:40;;;;;;;492.38;37.72;;;;;;;;;;6301998;22;20015;-75
2022/10/04 06:11:50;;;;;;;270.92;27.17;;;;;;;;;;6302158;22;20019;-75
2022/10/04 06:14:35;;;;;;;319.05;30.40;;;;;;;;;;6176076;23;20021;-75
2022/10/04 06:17:15;;;;;;;486.42;33.53;;;;;;;;;;6299255;22;20107;-75
2022/10/04 06:20:07;;;;;;;263.95;21.85;;;;;;;;;;6301754;22;20019;-75
2022/10/04 06:22:45;;;;;;;465.45;31.70;;;;;;;;;;6276470;22;20047;-75
2022/10/04 06:25:15;;;;;;;384.60;27.17;;;;;;;;;;6273115;22;20025;-75
2022/10/04 06:27:52;;;;;;;418.90;31.02;;;;;;;;;;6302512;22;20094;-75
2022/10/04 06:30:28;;;;;;;448.70;30.67;;;;;;;;;;6302265;22;20042;-75
2022/10/04 06:33:06;;;;;;;664.60;41.70;;;;;;;;;;6301846;22;20440;-75
2022/10/04 06:35:54;;;;;;;505.05;32.50;;;;;;;;;;6300951;22;20417;-76
2022/10/04 06:38:36;;;;;;;360.10;29.58;;;;;;;;;;6299836;22;20098;-75
2022/10/04 06:41:19;;;;;;;558.67;36.22;;;;;;;;;;6301022;22;20540;-75
2022/10/04 06:44:05;;;;;;;436.67;31.67;;;;;;;;;;6301076;22;20035;-76
2022/10/04 06:46:47;;;;;;;270.27;24.35;;;;;;;;;;6302340;22;20058;-75
2022/10/04 06:49:28;;;;;;;237.07;26.88;;;;;;;;;;6302304;22;20015;-75
2022/10/04 06:52:17;;;;;;;538.90;35.92;;;;;;;;;;6301409;22;20033;-75
2022/10/04 06:54:48;;;;;;;281.75;26.85;;;;;;;;;;6273652;22;20105;-76
2022/10/04 06:57:36;;;;;;;133.77;19.52;;;;;;;;;;6301953;22;20495;-76
2022/10/04 07:00:07;;;;;;;440.45;31.52;;;;;;;;;;6275826;22;20115;-75
2022/10/04 07:02:43;;;;;;;219.55;24.58;;;;;;;;;;6302868;22;20720;-75
2022/10/04 07:05:17;;;;;;;473.23;34.17;;;;;;;;;;6300957;22;20033;-75
2022/10/04 07:08:05;;;;;;;320.70;29.13;;;;;;;;;;6302669;22;20066;-76
2022/10/04 07:10:35;;;;;;;326.15;28.00;;;;;;;;;;6302862;22;20023;-76
2022/10/04 07:13:12;;;;;;;391.70;30.90;;;;;;;;;;6300918;22;20094;-75
2022/10/04 07:15:51;;;;;;;296.77;25.10;;;;;;;;;;6301353;22;20629;-76
2022/10/04 07:18:31;;;;;;;274.45;27.27;;;;;;;;;;6301826;22;20019;-75
2022/10/04 07:21:02;;;;;;;260.35;25.08;;;;;;;;;;6300808;22;20034;-76
2022/10/04 07:23:42;;;;;;;383.83;31.67;;;;;;;;;;6276030;22;20023;-76
2022/10/04 07:26:27;;;;;;;306.48;24.15;;;;;;;;;;6301673;22;20049;-76
2022/10/04 07:29:21;;;;;;;229.27;24.35;;;;;;;;;;6301640;22;20536;-75
2022/10/04 07:31:51;;;;;;;273.02;27.20;;;;;;;;;;6300885;22;20047;-75
2022/10/04 07:34:29;;;;;;;173.88;21.75;;;;;;;;;;6300482;22;20540;-76
2022/10/04 07:37:14;;;;;;;259.05;26.10;;;;;;;;;;6299913;22;20024;-76
2022/10/04 07:39:54;;;;;;;124.18;19.35;;;;;;;;;;6302430;22;20098;-77
2022/10/04 07:42:30;;;;;;;185.65;18.90;;;;;;;;;;6273891;22;20396;-76
2022/10/04 07:45:10;;;;;;;190.90;22.13;;;;;;;;;;6302111;22;20098;-75
2022/10/04 07:47:38;;;;;;;205.88;24.55;;;;;;;;;;6300749;22;20126;-75
2022/10/04 07:50:27;;;;;;;434.17;29.58;;;;;;;;;;6300146;22;20423;-76
2022/10/04 07:53:01;;;;;;;152.25;20.75;;;;;;;;;;6302446;22;20099;-76
2022/10/04 07:55:56;;;;;;;145.63;23.02;;;;;;;;;;6302202;22;20366;-76
2022/10/04 07:58:42;;;;;;;159.60;23.23;;;;;;;;;;6300838;22;20015;-75
2022/10/04 08:01:34;;;;;;;86.65;16.63;;;;;;;;;;6301553;22;20396;-76
2022/10/04 08:04:27;;;;;;;109.97;20.55;;;;;;;;;;6301237;22;20020;-76
2022/10/04 08:07:01;;;;;;;87.13;16.73;;;;;;;;;;6302049;22;20049;-76
2022/10/04 08:09:48;;;;;;;111.70;18.15;;;;;;;;;;6301705;22;20021;-76
2022/10/04 08:12:36;;;;;;;84.22;16.50;;;;;;;;;;6300582;22;20422;-75
2022/10/04 08:15:22;;;;;;;75.05;16.42;;;;;;;;;;6274693;22;20422;-76
2022/10/04 08:17:59;;;;;;;77.72;16.65;;;;;;;;;;6300914;22;20098;-76
2022/10/04 08:20:46;;;;;;;90.78;18.00;;;;;;;;;;6303084;22;20015;-76
2022/10/04 08:23:25;;;;;;;58.88;14.35;;;;;;;;;;6303062;22;20469;-76
2022/10/04 08:26:11;;;;;;;70.53;15.95;;;;;;;;;;6302681;22;20536;-76
2022/10/04 08:32:07;;;;;;;69.85;14.82;;;;;;;;;;6303927;22;20019;-76
2022/10/04 08:35:00;;;;;;;56.33;11.20;;;;;;;;;;6302819;22;20490;-76
2022/10/04 08:38:03;;;;;;;74.70;15.48;;;;;;;;;;6300913;22;20098;-75
2022/10/04 08:40:56;;;;;;;62.60;13.57;;;;;;;;;;6288420;22;20023;-76
2022/10/04 08:43:48;;;;;;;58.72;12.38;;;;;;;;;;6302399;22;20062;-76
2022/10/04 08:46:41;;;;;;;48.33;11.10;;;;;;;;;;6278170;22;20502;-77
2022/10/04 08:49:25;;;;;;;66.90;12.43;;;;;;;;;;6303636;22;20022;-76
2022/10/04 08:52:16;;;;;;;54.53;13.73;;;;;;;;;;6212389;22;20034;-76
2022/10/04 08:54:56;;;;;;;65.32;12.48;;;;;;;;;;6211743;22;20438;-76
2022/10/04 08:57:49;;;;;;;59.20;10.90;;;;;;;;;;6240759;22;20027;-77
2022/10/04 09:00:32;;;;;;;68.55;11.50;;;;;;;;;;6303239;22;20352;-77
2022/10/04 09:03:25;;;;;;;61.05;11.57;;;;;;;;;;6302426;22;20019;-76
2022/10/04 09:06:11;;;;;;;42.25;8.85;;;;;;;;;;6276859;22;20093;-76
2022/10/04 09:09:04;;;;;;;53.65;11.05;;;;;;;;;;6302795;22;20550;-76
2022/10/04 09:11:31;;;;;;;42.65;8.45;;;;;;;;;;6303038;22;20023;-75
2022/10/04 09:14:37;;;;;;;55.58;9.20;;;;;;;;;;6303309;22;20019;-76
2022/10/04 09:17:18;;;;;;;60.40;9.23;;;;;;;;;;6245649;22;20058;-76
2022/10/04 09:19:51;;;;;;;51.00;8.17;;;;;;;;;;6276443;22;20475;-76
2022/10/04 09:22:59;;;;;;;41.97;8.02;;;;;;;;;;6303104;22;20026;-76
2022/10/04 09:25:51;;;;;;;31.75;6.50;;;;;;;;;;6302896;22;20015;-76
2022/10/04 09:28:37;;;;;;;33.50;5.50;;;;;;;;;;6276970;22;20336;-76
2022/10/04 09:31:16;;;;;;;34.85;6.10;;;;;;;;;;6302569;22;20098;-76
2022/10/04 09:33:50;;;;;;;35.33;6.40;;;;;;;;;;6303192;22;20030;-77
2022/10/04 09:36:24;;;;;;;33.33;6.55;;;;;;;;;;6277941;22;20026;-76
2022/10/04 09:39:04;;;;;;;27.17;6.05;;;;;;;;;;6297500;22;20352;-75
2022/10/04 09:41:58;;;;;;;29.50;5.97;;;;;;;;;;6302895;22;20023;-76
2022/10/04 09:44:43;;;;;;;35.72;6.85;;;;;;;;;;6301942;22;20098;-76
2022/10/04 09:47:44;;;;;;;37.97;5.72;;;;;;;;;;6276328;22;20491;-76
2022/10/04 09:50:34;;;;;;;28.88;5.88;;;;;;;;;;6299532;22;20089;-75
2022/10/04 09:53:20;;;;;;;35.95;5.60;;;;;;;;;;6301989;22;20567;-76
2022/10/04 09:56:09;;;;;;;31.02;5.07;;;;;;;;;;6302270;22;20030;-76
2022/10/04 09:59:02;;;;;;;24.33;4.45;;;;;;;;;;6277296;22;20027;-76
2022/10/04 10:01:29;;;;;;;21.00;4.40;;;;;;;;;;6300663;22;20372;-76
2022/10/04 10:04:03;;;;;;;33.00;4.40;;;;;;;;;;6302755;22;20058;-76
2022/10/04 10:06:46;;;;;;;37.38;6.07;;;;;;;;;;6302817;22;20101;-76
2022/10/04 10:09:19;;;;;;;34.85;5.28;;;;;;;;;;6276844;22;20053;-76
2022/10/04 10:15:04;;;;;;;29.50;5.03;;;;;;;;;;6302219;22;20027;-76
2022/10/04 10:17:40;;;;;;;20.75;4.05;;;;;;;;;;6300494;22;20019;-76
2022/10/04 10:20:15;;;;;;;26.60;4.40;;;;;;;;;;6277994;22;20093;-76
2022/10/04 10:23:01;;;;;;;25.70;4.72;;;;;;;;;;6275313;22;20023;-76
2022/10/04 10:25:41;;;;;;;21.00;3.60;;;;;;;;;;6301812;22;20026;-76
2022/10/04 10:28:31;;;;;;;21.98;4.57;;;;;;;;;;6303180;22;20023;-76
2022/10/04 10:31:12;;;;;;;20.60;3.45;;;;;;;;;;6302005;22;20065;-75
2022/10/04 10:33:58;;;;;;;20.55;3.70;;;;;;;;;;6300510;22;20178;-75
2022/10/04 10:36:58;;;;;;;26.98;3.70;;;;;;;;;;6276175;22;20130;-75
2022/10/04 10:39:44;;;;;;;21.77;3.67;;;;;;;;;;6268934;22;20055;-75
2022/10/04 10:42:26;;;;;;;14.13;3.15;;;;;;;;;;6270110;22;20098;-76
2022/10/04 10:44:55;;;;;;;20.38;3.97;;;;;;;;;;6271511;22;20090;-75
2022/10/04 10:47:46;;;;;;;16.25;3.80;;;;;;;;;;6269971;22;20102;-75
2022/10/04 10:50:26;;;;;;;20.05;3.10;;;;;;;;;;6269330;22;20023;-76
2022/10/04 10:53:29;;;;;;;17.42;3.35;;;;;;;;;;6268539;22;20556;-76
2022/10/04 10:55:59;;;;;;;12.00;2.60;;;;;;;;;;6270877;22;20130;-75
2022/10/04 10:58:38;;;;;;;15.02;3.38;;;;;;;;;;6271187;22;20452;-76
2022/10/04 11:01:23;;;;;;;16.88;2.92;;;;;;;;;;6269498;22;20098;-76
2022/10/04 11:04:07;;;;;;;15.45;3.05;;;;;;;;;;6271199;22;20054;-76
2022/10/04 11:06:43;;;;;;;16.45;3.08;;;;;;;;;;6270615;22;20023;-76
2022/10/04 11:09:26;;;;;;;18.48;3.22;;;;;;;;;;6270223;22;20015;-75
2022/10/04 11:12:14;;;;;;;13.98;2.78;;;;;;;;;;6271680;22;20070;-75
2022/10/04 11:15:06;;;;;;;18.40;2.97;;;;;;;;;;6270935;22;20111;-75
2022/10/04 11:17:48;;;;;;;9.32;2.83;;;;;;;;;;6270336;22;20453;-76
2022/10/04 11:20:28;;;;;;;14.05;3.08;;;;;;;;;;6271201;22;20559;-75
2022/10/04 11:23:13;;;;;;;15.65;3.22;;;;;;;;;;6269619;22;20026;-75
2022/10/04 11:25:56;;;;;;;13.43;3.25;;;;;;;;;;6270797;22;20095;-76
2022/10/04 11:28:30;;;;;;;13.23;2.70;;;;;;;;;;6271272;22;20026;-75
2022/10/04 11:31:18;;;;;;;16.48;3.00;;;;;;;;;;6269520;22;20030;-76
2022/10/04 11:34:02;;;;;;;21.95;3.10;;;;;;;;;;6268645;22;20074;-76
2022/10/04 11:36:55;;;;;;;16.80;3.13;;;;;;;;;;6268707;22;20469;-76
2022/10/04 11:39:43;;;;;;;17.23;3.08;;;;;;;;;;6293914;22;20029;-76
2022/10/04 11:42:28;;;;;;;15.07;3.92;;;;;;;;;;6274277;22;20037;-75
2022/10/04 11:45:21;;;;;;;13.52;2.67;;;;;;;;;;6299695;22;20090;-76
2022/10/04 11:48:10;;;;;;;17.45;3.20;;;;;;;;;;6301654;22;20019;-76
2022/10/04 11:50:43;;;;;;;18.10;3.30;;;;;;;;;;6275628;22;20034;-76
2022/10/04 11:53:17;;;;;;;16.33;3.30;;;;;;;;;;6300764;22;20078;-75
2022/10/04 11:55:53;;;;;;;15.63;3.20;;;;;;;;;;6303041;22;20033;-76
2022/10/04 11:58:30;;;;;;;20.02;3.05;;;;;;;;;;6302919;22;20020;-76
2022/10/04 12:01:31;;;;;;;23.05;3.97;;;;;;;;;;6304002;22;20051;-75
2022/10/04 12:04:02;;;;;;;16.25;3.63;;;;;;;;;;6276091;22;20420;-75
2022/10/04 12:06:56;;;;;;;17.60;3.60;;;;;;;;;;6302911;22;20447;-75
2022/10/04 12:09:29;;;;;;;11.48;3.03;;;;;;;;;;6303867;22;20086;-75
2022/10/04 12:12:35;;;;;;;14.88;3.60;;;;;;;;;;6303487;22;20134;-76
2022/10/04 12:15:07;;;;;;;11.93;2.85;;;;;;;;;;6293887;22;20069;-76
2022/10/04 12:18:04;;;;;;;12.15;2.90;;;;;;;;;;6302999;22;20022;-75
2022/10/04 12:20:40;;;;;;;10.90;2.83;;;;;;;;;;6289099;22;20027;-75
2022/10/04 12:23:20;;;;;;;10.63;2.90;;;;;;;;;;6303350;22;20023;-75
2022/10/04 12:26:07;;;;;;;16.85;3.53;;;;;;;;;;6274957;22;20360;-76
2022/10/04 12:28:51;;;;;;;16.58;3.42;;;;;;;;;;6278633;22;20073;-76
2022/10/04 12:31:18;;;;;;;13.75;2.92;;;;;;;;;;6302541;22;20051;-75
2022/10/04 12:34:14;;;;;;;10.38;2.42;;;;;;;;;;6276858;22;20023;-75
2022/10/04 12:36:47;;;;;;;14.43;3.05;;;;;;;;;;6302563;22;20026;-75
2022/10/04 12:39:30;;;;;;;14.90;2.95;;;;;;;;;;6301301;22;20025;-75
2022/10/04 12:41:57;;;;;;;14.90;2.95;;;;;;;;;;6303491;22;20421;-75
2022/10/04 12:44:31;;;;;;;13.05;2.85;;;;;;;;;;6303062;22;20510;-75
2022/10/04 12:47:19;;;;;;;15.60;2.92;;;;;;;;;;6303263;22;20019;-75
2022/10/04 12:50:00;;;;;;;20.20;3.42;;;;;;;;;;6277443;22;20026;-75
2022/10/04 12:52:33;;;;;;;16.38;2.70;;;;;;;;;;6303463;22;20074;-75
2022/10/04 12:55:16;;;;;;;14.45;3.67;;;;;;;;;;6302478;22;20025;-76
2022/10/04 12:57:53;;;;;;;12.57;2.72;;;;;;;;;;6276655;22;20026;-75
2022/10/04 13:00:22;;;;;;;11.57;3.03;;;;;;;;;;6302471;22;20020;-75
2022/10/04 13:03:14;;;;;;;10.43;2.70;;;;;;;;;;6303453;22;20431;-75
2022/10/04 13:06:01;;;;;;;16.63;3.08;;;;;;;;;;6301774;22;20413;-76
2022/10/04 13:09:04;;;;;;;10.02;2.90;;;;;;;;;;6302121;22;20027;-76
2022/10/04 13:11:41;;;;;;;15.15;3.35;;;;;;;;;;6262596;22;20025;-75
2022/10/04 13:14:40;;;;;;;17.50;3.63;;;;;;;;;;6301716;22;20053;-75
2022/10/04 13:17:07;;;;;;;14.32;2.83;;;;;;;;;;6274351;22;20098;-76
2022/10/04 13:20:19;;;;;;;12.77;2.90;;;;;;;;;;6302532;22;20046;-75
2022/10/04 13:22:46;;;;;;;19.27;3.28;;;;;;;;;;6301722;22;20420;-76
2022/10/04 13:25:23;;;;;;;20.15;3.38;;;;;;;;;;6302345;22;20019;-75
2022/10/04 13:28:07;;;;;;;10.02;3.05;;;;;;;;;;6275691;22;20019;-74
2022/10/04 13:30:50;;;;;;;13.50;3.60;;;;;;;;;;6277352;22;20409;-75
2022/10/04 13:33:25;;;;;;;17.88;3.50;;;;;;;;;;6302236;22;20066;-75
2022/10/04 13:36:18;;;;;;;12.43;3.60;;;;;;;;;;6276129;22;20302;-75
2022/10/04 13:39:08;;;;;;;10.00;3.30;;;;;;;;;;6300127;22;20050;-75
2022/10/04 13:41:57;;;;;;;17.80;3.75;;;;;;;;;;6302596;22;20025;-75
2022/10/04 13:44:34;;;;;;;14.73;3.55;;;;;;;;;;6301655;22;20449;-75
2022/10/04 13:47:24;;;;;;;13.60;3.58;;;;;;;;;;6303382;22;20543;-75
2022/10/04 13:49:57;;;;;;;17.70;3.70;;;;;;;;;;6302507;22;20033;-75
2022/10/04 13:58:42;;;;;;;17.30;3.50;;;;;;;;;;6301349;22;20126;-76
2022/10/04 14:01:28;;;;;;;13.57;3.50;;;;;;;;;;6275056;22;20380;-75
2022/10/04 14:04:05;;;;;;;20.38;3.85;;;;;;;;;;6301237;22;20094;-75
2022/10/04 14:06:52;;;;;;;11.77;3.42;;;;;;;;;;6300979;22;20025;-75
2022/10/04 14:09:39;;;;;;;15.05;3.28;;;;;;;;;;6301530;22;20030;-75
2022/10/04 14:12:12;;;;;;;14.77;3.00;;;;;;;;;;6301742;22;20026;-75
2022/10/04 14:14:51;;;;;;;15.60;2.95;;;;;;;;;;6302408;22;20023;-76
2022/10/04 14:17:21;;;;;;;13.20;3.20;;;;;;;;;;6300548;22;20102;-75
2022/10/04 14:20:14;;;;;;;14.45;3.10;;;;;;;;;;6300620;22;20097;-75
2022/10/04 14:23:00;;;;;;;17.73;3.53;;;;;;;;;;6271829;22;20422;-75
2022/10/04 14:25:52;;;;;;;13.93;3.33;;;;;;;;;;6298334;22;20543;-76
2022/10/04 14:28:25;;;;;;;16.52;3.33;;;;;;;;;;6299074;22;20080;-77
2022/10/04 14:31:06;;;;;;;11.73;2.90;;;;;;;;;;6299540;22;20108;-75
2022/10/04 14:33:44;;;;;;;14.68;3.40;;;;;;;;;;6298086;22;20026;-75
2022/10/04 14:36:40;;;;;;;16.52;3.63;;;;;;;;;;6297507;22;20027;-74
2022/10/04 14:39:14;;;;;;;19.08;3.47;;;;;;;;;;6296915;22;20107;-76
2022/10/04 14:42:04;;;;;;;23.85;3.65;;;;;;;;;;6298646;22;20129;-75
2022/10/04 14:44:44;;;;;;;17.13;3.60;;;;;;;;;;6297691;22;20393;-75
2022/10/04 14:47:12;;;;;;;11.27;2.90;;;;;;;;;;6298566;22;20034;-75
2022/10/04 14:49:56;;;;;;;13.60;3.28;;;;;;;;;;6295115;22;20128;-75
2022/10/04 14:52:45;;;;;;;12.48;3.20;;;;;;;;;;6298710;22;20449;-76
2022/10/04 14:55:29;;;;;;;18.95;3.35;;;;;;;;;;6298133;22;20130;-76
2022/10/04 14:58:04;;;;;;;15.13;3.20;;;;;;;;;;6298283;22;20054;-75
2022/10/04 15:00:59;;;;;;;22.33;4.25;;;;;;;;;;6298539;22;20084;-76
2022/10/04 15:03:45;;;;;;;15.65;3.38;;;;;;;;;;6298887;22;20385;-75
2022/10/04 15:06:39;;;;;;;14.85;3.13;;;;;;;;;;6298187;22;20080;-75
2022/10/04 15:09:06;;;;;;;17.80;3.40;;;;;;;;;;6270716;22;20381;-75
2022/10/04 15:12:01;;;;;;;15.98;3.92;;;;;;;;;;6272729;22;20464;-75
2022/10/04 15:14:57;;;;;;;17.20;3.53;;;;;;;;;;6298010;22;20019;-76
2022/10/04 15:17:36;;;;;;;18.50;3.70;;;;;;;;;;6299009;22;20485;-75
2022/10/04 15:20:18;;;;;;;20.65;3.50;;;;;;;;;;6297083;22;20196;-76
2022/10/04 15:23:07;;;;;;;24.05;4.32;;;;;;;;;;6297918;22;20065;-75
2022/10/04 15:25:45;;;;;;;14.68;4.18;;;;;;;;;;6297820;22;20029;-75
2022/10/04 15:28:37;;;;;;;17.77;3.65;;;;;;;;;;6298088;22;20020;-75
2022/10/04 15:31:19;;;;;;;16.35;5.10;;;;;;;;;;6300558;22;20076;-76
2022/10/04 15:33:56;;;;;;;15.32;4.35;;;;;;;;;;6298881;22;20023;-75
2022/10/04 15:36:23;;;;;;;18.27;3.70;;;;;;;;;;6300446;22;20102;-75
2022/10/04 15:39:27;;;;;;;21.30;3.70;;;;;;;;;;6266437;22;20532;-75
2022/10/04 15:42:02;;;;;;;16.10;3.80;;;;;;;;;;6255361;22;20055;-75
2022/10/04 15:44:38;;;;;;;22.75;3.95;;;;;;;;;;6269389;22;20566;-75
2022/10/04 15:47:06;;;;;;;17.90;4.00;;;;;;;;;;6270321;22;20047;-75
2022/10/04 15:49:58;;;;;;;20.70;5.05;;;;;;;;;;6266274;22;20034;-75
2022/10/04 15:52:35;;;;;;;16.45;4.47;;;;;;;;;;6268882;22;20028;-75
2022/10/04 15:55:08;;;;;;;22.08;3.97;;;;;;;;;;6268989;22;20020;-76
2022/10/04 15:57:39;;;;;;;20.90;4.20;;;;;;;;;;6266231;22;20020;-75